createdAt,value
2019-05-28T00:00:30.743Z,18.07
2019-05-28T00:03:02.683Z,18.07
2019-05-28T00:05:34.718Z,18.07
2019-05-28T00:08:06.665Z,18.12
2019-05-28T00:10:38.743Z,18.15
2019-05-28T00:13:10.539Z,18.18
2019-05-28T00:15:42.767Z,18.18
2019-05-28T00:18:14.586Z,18.20
2019-05-28T00:20:46.593Z,18.15
2019-05-28T00:23:18.426Z,18.13
2019-05-28T00:25:50.525Z,18.11
2019-05-28T00:28:22.469Z,18.11
2019-05-28T00:30:54.577Z,18.10
2019-05-28T00:33:26.301Z,18.11
2019-05-28T00:35:58.398Z,18.14
2019-05-28T00:38:30.392Z,18.20
2019-05-28T00:41:02.407Z,18.20
2019-05-28T00:43:34.331Z,18.11
2019-05-28T00:46:07.581Z,17.91
2019-05-28T00:48:40.616Z,17.87
2019-05-28T00:51:12.619Z,17.92
2019-05-28T00:53:44.936Z,17.80
2019-05-28T00:56:17.876Z,17.51
2019-05-28T00:58:51.440Z,17.47
2019-05-28T01:01:23.448Z,17.45
2019-05-28T01:03:55.302Z,17.52
2019-05-28T01:06:27.141Z,17.53
2019-05-28T01:09:00.096Z,17.58
2019-05-28T01:11:32.115Z,17.62
2019-05-28T01:14:03.898Z,17.59
2019-05-28T01:16:35.777Z,17.57
2019-05-28T01:19:07.555Z,17.60
2019-05-28T01:21:42.311Z,17.63
2019-05-28T01:24:13.329Z,17.67
2019-05-28T01:26:45.423Z,17.64
2019-05-28T01:29:17.241Z,17.69
2019-05-28T01:31:49.261Z,17.67
2019-05-28T01:34:21.015Z,17.66
2019-05-28T01:36:52.915Z,17.56
2019-05-28T01:39:24.908Z,17.47
2019-05-28T01:41:56.906Z,17.42
2019-05-28T01:44:28.672Z,17.50
2019-05-28T01:47:00.735Z,17.55
2019-05-28T01:49:32.485Z,17.50
2019-05-28T01:52:04.664Z,17.58
2019-05-28T01:54:36.489Z,17.62
2019-05-28T01:57:08.352Z,17.62
2019-05-28T01:59:40.117Z,17.64
2019-05-28T02:02:12.210Z,17.65
2019-05-28T02:04:44.037Z,17.60
2019-05-28T02:07:15.900Z,17.57
2019-05-28T02:09:47.982Z,17.62
2019-05-28T02:12:21.048Z,17.66
2019-05-28T02:14:52.811Z,17.68
2019-05-28T02:17:24.548Z,17.67
2019-05-28T02:19:56.278Z,17.68
2019-05-28T02:22:28.244Z,17.68
2019-05-28T02:25:00.241Z,17.66
2019-05-28T02:27:32.261Z,17.62
2019-05-28T02:30:04.176Z,17.63
2019-05-28T02:32:36.295Z,17.63
2019-05-28T02:35:09.378Z,17.63
2019-05-28T02:37:41.448Z,17.64
2019-05-28T02:40:14.060Z,17.58
2019-05-28T02:42:46.048Z,17.61
2019-05-28T02:45:18.840Z,17.61
2019-05-28T02:47:50.831Z,17.63
2019-05-28T02:51:02.193Z,17.58
2019-05-28T02:53:34.841Z,17.54
2019-05-28T02:56:06.954Z,17.53
2019-05-28T02:58:39.562Z,17.52
2019-05-28T03:01:11.470Z,17.55
2019-05-28T03:03:46.232Z,17.56
2019-05-28T03:06:19.941Z,17.55
2019-05-28T03:08:56.268Z,17.55
2019-05-28T03:11:28.189Z,17.47
2019-05-28T03:14:00.044Z,17.45
2019-05-28T03:16:36.435Z,17.44
2019-05-28T03:19:10.458Z,17.45
2019-05-28T03:21:43.011Z,17.45
2019-05-28T03:24:17.640Z,17.47
2019-05-28T03:26:49.728Z,17.48
2019-05-28T03:29:21.679Z,17.47
2019-05-28T03:32:07.325Z,17.46
2019-05-28T03:34:26.986Z,17.45
2019-05-28T03:37:01.025Z,17.40
2019-05-28T03:39:35.439Z,17.41
2019-05-28T03:42:07.478Z,17.39
2019-05-28T03:44:39.284Z,17.41
2019-05-28T03:47:11.080Z,17.43
2019-05-28T03:49:42.916Z,17.47
2019-05-28T03:52:14.711Z,17.48
2019-05-28T03:54:46.815Z,17.47
2019-05-28T03:57:18.994Z,17.46
2019-05-28T03:59:51.042Z,17.39
2019-05-28T04:02:24.217Z,17.42
2019-05-28T04:04:56.314Z,17.45
2019-05-28T04:07:28.113Z,17.43
2019-05-28T04:10:00.018Z,17.44
2019-05-28T04:12:32.833Z,17.44
2019-05-28T04:15:04.673Z,17.36
2019-05-28T04:17:36.543Z,17.45
2019-05-28T04:20:08.461Z,17.45
2019-05-28T04:22:40.285Z,17.45
2019-05-28T04:25:12.906Z,17.46
2019-05-28T04:27:44.787Z,17.43
2019-05-28T04:30:17.587Z,17.41
2019-05-28T04:32:49.375Z,17.43
2019-05-28T04:35:21.422Z,17.37
2019-05-28T04:37:53.244Z,17.42
2019-05-28T04:40:25.305Z,17.43
2019-05-28T04:42:57.135Z,17.35
2019-05-28T04:45:29.157Z,17.45
2019-05-28T04:48:00.935Z,17.42
2019-05-28T04:50:32.882Z,17.48
2019-05-28T04:53:04.762Z,17.51
2019-05-28T04:55:36.859Z,17.60
2019-05-28T04:58:08.970Z,17.67
2019-05-28T05:00:41.050Z,17.67
2019-05-28T05:03:12.922Z,17.70
2019-05-28T05:05:45.074Z,17.73
2019-05-28T05:08:16.883Z,17.69
2019-05-28T05:10:48.904Z,17.75
2019-05-28T05:13:20.755Z,17.79
2019-05-28T05:15:52.613Z,17.92
2019-05-28T05:18:24.425Z,18.00
2019-05-28T05:20:56.307Z,18.06
2019-05-28T05:23:28.136Z,18.10
2019-05-28T05:26:00.287Z,18.14
2019-05-28T05:28:32.324Z,18.18
2019-05-28T05:31:05.657Z,18.19
2019-05-28T05:33:37.426Z,18.14
2019-05-28T05:36:09.330Z,18.13
2019-05-28T05:38:41.179Z,18.19
2019-05-28T05:41:13.281Z,18.18
2019-05-28T05:43:45.399Z,18.12
2019-05-28T05:46:17.723Z,18.21
2019-05-28T05:48:49.497Z,18.18
2019-05-28T05:51:21.548Z,18.14
2019-05-28T05:53:53.323Z,18.26
2019-05-28T05:56:25.468Z,18.34
2019-05-28T05:58:57.608Z,18.52
2019-05-28T06:01:29.636Z,18.56
2019-05-28T06:04:01.436Z,18.87
2019-05-28T06:06:33.429Z,18.90
2019-05-28T06:09:06.449Z,19.19
2019-05-28T06:11:38.492Z,19.37
2019-05-28T06:14:10.501Z,19.37
2019-05-28T06:16:43.539Z,19.39
2019-05-28T06:19:15.328Z,19.33
2019-05-28T06:21:47.331Z,19.30
2019-05-28T06:24:19.080Z,19.20
2019-05-28T06:26:51.008Z,19.24
2019-05-28T06:29:23.103Z,19.24
2019-05-28T06:31:54.926Z,19.39
2019-05-28T06:34:26.710Z,19.54
2019-05-28T06:36:58.738Z,19.57
2019-05-28T06:39:30.585Z,19.49
2019-05-28T06:42:02.455Z,19.71
2019-05-28T06:44:34.679Z,19.79
2019-05-28T06:47:06.812Z,19.90
2019-05-28T06:49:38.622Z,20.10
2019-05-28T06:52:10.718Z,20.39
2019-05-28T06:54:42.510Z,20.26
2019-05-28T06:57:22.735Z,20.42
2019-05-28T06:59:48.188Z,20.65
2019-05-28T07:02:20.014Z,20.82
2019-05-28T07:04:51.768Z,21.04
2019-05-28T07:07:23.608Z,21.26
2019-05-28T07:09:55.400Z,21.42
2019-05-28T07:12:27.290Z,21.44
2019-05-28T07:14:59.408Z,21.42
2019-05-28T07:17:31.330Z,21.51
2019-05-28T07:20:03.107Z,21.45
2019-05-28T07:22:35.028Z,21.66
2019-05-28T07:25:07.508Z,22.00
2019-05-28T07:27:39.576Z,22.29
2019-05-28T07:30:12.286Z,22.52
2019-05-28T07:32:44.228Z,22.59
2019-05-28T07:35:16.029Z,22.56
2019-05-28T07:37:48.080Z,22.73
2019-05-28T07:40:31.263Z,23.05
2019-05-28T07:42:53.580Z,23.26
2019-05-28T07:45:25.595Z,23.15
2019-05-28T07:47:57.461Z,23.23
2019-05-28T07:50:29.238Z,23.28
2019-05-28T07:53:00.997Z,23.30
2019-05-28T07:55:32.850Z,23.04
2019-05-28T07:58:04.731Z,23.09
2019-05-28T08:00:46.215Z,23.30
2019-05-28T08:03:18.176Z,23.38
2019-05-28T08:05:49.954Z,23.44
2019-05-28T08:08:24.690Z,23.45
2019-05-28T08:10:56.579Z,23.44
2019-05-28T08:13:40.327Z,23.33
2019-05-28T08:16:17.572Z,23.15
2019-05-28T08:18:36.538Z,23.29
2019-05-28T08:21:08.443Z,23.46
2019-05-28T08:23:40.438Z,23.46
2019-05-28T08:26:12.307Z,23.66
2019-05-28T08:28:44.136Z,23.83
2019-05-28T08:31:20.694Z,24.03
2019-05-28T08:33:49.866Z,24.32
2019-05-28T08:36:21.639Z,24.44
2019-05-28T08:38:53.782Z,24.66
2019-05-28T08:41:25.544Z,24.49
2019-05-28T08:43:57.518Z,24.43
2019-05-28T08:46:29.619Z,24.29
2019-05-28T08:49:01.622Z,23.96
2019-05-28T08:51:33.377Z,24.19
2019-05-28T08:54:05.783Z,24.13
2019-05-28T08:56:37.529Z,24.34
2019-05-28T08:59:09.595Z,24.90
2019-05-28T09:01:41.652Z,25.21
2019-05-28T09:04:13.616Z,25.42
2019-05-28T09:06:45.935Z,25.17
2019-05-28T09:09:17.831Z,25.29
2019-05-28T09:11:50.001Z,25.54
2019-05-28T09:14:22.050Z,25.42
2019-05-28T09:16:55.261Z,25.37
2019-05-28T09:19:27.143Z,25.27
2019-05-28T09:21:59.265Z,25.48
2019-05-28T09:24:33.892Z,25.91
2019-05-28T09:27:07.042Z,25.86
2019-05-28T09:29:39.458Z,25.79
2019-05-28T09:32:11.683Z,25.48
2019-05-28T09:34:43.967Z,24.92
2019-05-28T09:37:15.888Z,25.20
2019-05-28T09:39:47.826Z,24.95
2019-05-28T09:42:19.738Z,24.68
2019-05-28T09:44:51.633Z,24.16
2019-05-28T09:47:23.622Z,24.91
2019-05-28T09:49:56.390Z,24.89
2019-05-28T09:52:28.282Z,25.24
2019-05-28T09:55:00.296Z,25.56
2019-05-28T09:57:46.438Z,26.09
2019-05-28T10:00:08.820Z,26.34
2019-05-28T10:02:41.729Z,26.78
2019-05-28T10:05:13.961Z,26.60
2019-05-28T10:07:45.726Z,26.72
2019-05-28T10:10:17.786Z,26.68
2019-05-28T10:12:49.660Z,26.89
2019-05-28T10:15:22.050Z,27.09
2019-05-28T10:17:53.928Z,27.46
2019-05-28T10:20:27.181Z,27.85
2019-05-28T10:22:59.060Z,27.95
2019-05-28T10:25:31.221Z,27.61
2019-05-28T10:28:03.085Z,26.40
2019-05-28T10:30:35.018Z,26.96
2019-05-28T10:33:07.056Z,27.28
2019-05-28T10:35:38.916Z,27.69
2019-05-28T10:38:15.265Z,27.60
2019-05-28T10:40:44.521Z,27.64
2019-05-28T10:43:16.401Z,27.96
2019-05-28T10:45:48.427Z,27.43
2019-05-28T10:48:20.401Z,27.97
2019-05-28T10:50:52.390Z,27.67
2019-05-28T10:53:25.149Z,26.74
2019-05-28T10:55:57.144Z,27.04
2019-05-28T10:58:28.967Z,27.43
2019-05-28T11:01:02.074Z,27.68
2019-05-28T11:03:34.101Z,27.45
2019-05-28T11:06:06.206Z,27.51
2019-05-28T11:08:38.027Z,27.90
2019-05-28T11:11:10.051Z,27.68
2019-05-28T11:13:52.701Z,27.30
2019-05-28T11:16:15.804Z,26.87
2019-05-28T11:18:47.842Z,26.48
2019-05-28T11:21:19.949Z,25.91
2019-05-28T11:23:51.723Z,25.78
2019-05-28T11:26:23.633Z,25.44
2019-05-28T11:28:55.571Z,25.30
2019-05-28T11:31:27.694Z,25.13
2019-05-28T11:33:59.502Z,24.84
2019-05-28T11:36:32.056Z,24.74
2019-05-28T11:39:06.602Z,24.50
2019-05-28T11:41:42.670Z,23.76
2019-05-28T11:44:12.391Z,22.97
2019-05-28T11:46:44.525Z,22.73
2019-05-28T11:49:16.412Z,22.87
2019-05-28T11:51:48.843Z,22.67
2019-05-28T11:54:20.809Z,22.35
2019-05-28T11:56:52.671Z,22.24
2019-05-28T11:59:24.462Z,22.44
2019-05-28T12:01:56.805Z,22.75
2019-05-28T12:04:29.018Z,22.79
2019-05-28T12:07:00.851Z,22.71
2019-05-28T12:09:33.559Z,22.68
2019-05-28T12:12:05.722Z,22.65
2019-05-28T12:14:37.663Z,22.67
2019-05-28T12:17:09.700Z,22.71
2019-05-28T12:19:41.882Z,22.63
2019-05-28T12:22:14.037Z,22.57
2019-05-28T12:24:45.865Z,22.54
2019-05-28T12:27:17.674Z,22.45
2019-05-28T12:29:52.160Z,22.29
2019-05-28T12:32:22.989Z,22.20
2019-05-28T12:34:55.112Z,22.22
2019-05-28T12:37:46.248Z,22.32
2019-05-28T12:40:01.081Z,22.23
2019-05-28T12:42:33.382Z,22.15
2019-05-28T12:45:09.801Z,22.05
2019-05-28T12:47:39.742Z,21.93
2019-05-28T12:50:19.828Z,21.70
2019-05-28T12:52:47.844Z,21.52
2019-05-28T12:55:21.388Z,21.46
2019-05-28T12:57:53.929Z,21.36
2019-05-28T13:00:27.862Z,21.20
2019-05-28T13:03:00.551Z,21.13
2019-05-28T13:05:33.913Z,21.13
2019-05-28T13:08:09.906Z,21.12
2019-05-28T13:10:39.792Z,21.16
2019-05-28T13:13:11.814Z,21.20
2019-05-28T13:15:43.705Z,21.23
2019-05-28T13:18:15.647Z,21.25
2019-05-28T13:20:48.414Z,21.20
2019-05-28T13:23:20.928Z,21.17
2019-05-28T13:25:52.689Z,21.19
2019-05-28T13:28:24.592Z,21.22
2019-05-28T13:30:56.393Z,21.21
2019-05-28T13:33:28.329Z,21.25
2019-05-28T13:36:01.828Z,21.28
2019-05-28T13:38:33.941Z,21.31
2019-05-28T13:41:05.834Z,21.28
2019-05-28T13:43:37.878Z,21.32
2019-05-28T13:46:09.745Z,21.30
2019-05-28T13:48:41.648Z,21.24
2019-05-28T13:51:13.863Z,21.19
2019-05-28T13:53:45.904Z,21.11
2019-05-28T13:56:17.644Z,21.06
2019-05-28T13:58:49.990Z,21.02
2019-05-28T14:01:25.455Z,20.88
2019-05-28T14:03:55.612Z,20.85
2019-05-28T14:06:27.868Z,20.96
2019-05-28T14:09:00.183Z,21.06
2019-05-28T14:11:32.425Z,21.16
2019-05-28T14:14:04.816Z,21.21
2019-05-28T14:16:36.787Z,21.24
2019-05-28T14:19:09.150Z,21.22
2019-05-28T14:21:41.597Z,21.21
2019-05-28T14:24:13.879Z,21.26
2019-05-28T14:26:46.324Z,21.02
2019-05-28T14:29:19.075Z,20.88
2019-05-28T14:31:51.205Z,20.91
2019-05-28T14:34:23.124Z,20.74
2019-05-28T14:36:56.201Z,20.45
2019-05-28T14:39:40.576Z,19.95
2019-05-28T14:42:02.750Z,19.60
2019-05-28T14:44:34.975Z,19.35
2019-05-28T14:47:06.964Z,19.38
2019-05-28T14:49:39.074Z,19.34
2019-05-28T14:52:11.147Z,19.26
2019-05-28T14:54:43.307Z,18.91
2019-05-28T14:57:15.179Z,18.65
2019-05-28T14:59:47.450Z,18.68
2019-05-28T15:02:19.848Z,18.85
2019-05-28T15:04:51.891Z,18.73
2019-05-28T15:07:24.569Z,18.78
2019-05-28T15:09:56.612Z,18.70
2019-05-28T15:12:28.453Z,18.49
2019-05-28T15:15:00.539Z,18.66
2019-05-28T15:17:32.382Z,18.58
2019-05-28T15:20:06.256Z,18.67
2019-05-28T15:22:39.634Z,18.58
2019-05-28T15:25:12.489Z,18.64
2019-05-28T15:27:44.577Z,18.65
2019-05-28T15:30:18.740Z,18.72
2019-05-28T15:32:50.602Z,18.66
2019-05-28T15:35:22.846Z,18.72
2019-05-28T15:37:55.204Z,18.78
2019-05-28T15:40:27.211Z,18.75
2019-05-28T15:43:06.075Z,18.92
2019-05-28T15:45:33.365Z,19.12
2019-05-28T15:48:05.524Z,19.34
2019-05-28T15:50:37.688Z,19.55
2019-05-28T15:53:09.906Z,19.63
2019-05-28T15:55:42.246Z,19.72
2019-05-28T15:58:14.279Z,19.91
2019-05-28T16:00:46.695Z,19.89
2019-05-28T16:03:18.647Z,19.97
2019-05-28T16:05:50.636Z,20.02
2019-05-28T16:08:22.708Z,20.04
2019-05-28T16:10:54.785Z,20.08
2019-05-28T16:13:26.629Z,20.16
2019-05-28T16:15:58.879Z,20.20
2019-05-28T16:18:30.815Z,20.75
2019-05-28T16:21:02.777Z,21.23
2019-05-28T16:23:35.081Z,22.48
2019-05-28T16:26:06.966Z,24.77
2019-05-28T16:28:38.794Z,25.75
2019-05-28T16:31:12.765Z,25.28
2019-05-28T16:33:44.446Z,25.26
2019-05-28T16:36:16.370Z,24.36
2019-05-28T16:38:48.507Z,23.45
2019-05-28T16:41:20.613Z,22.63
2019-05-28T16:43:52.442Z,22.14
2019-05-28T16:46:24.377Z,21.53
2019-05-28T16:48:56.337Z,21.22
2019-05-28T16:51:30.952Z,21.15
2019-05-28T16:54:18.192Z,21.24
2019-05-28T16:56:37.128Z,21.33
2019-05-28T16:59:09.067Z,21.20
2019-05-28T17:01:42.086Z,20.97
2019-05-28T17:04:13.948Z,20.81
2019-05-28T17:06:46.105Z,20.72
2019-05-28T17:09:18.333Z,20.61
2019-05-28T17:11:50.590Z,20.45
2019-05-28T17:14:26.767Z,20.35
2019-05-28T17:16:57.022Z,20.25
2019-05-28T17:19:29.160Z,20.10
2019-05-28T17:22:01.250Z,19.99
2019-05-28T17:24:33.208Z,19.92
2019-05-28T17:27:05.190Z,19.85
2019-05-28T17:29:37.038Z,19.75
2019-05-28T17:32:09.018Z,19.72
2019-05-28T17:34:41.022Z,19.72
2019-05-28T17:37:12.951Z,19.70
2019-05-28T17:39:44.876Z,19.67
2019-05-28T17:42:16.874Z,19.63
2019-05-28T17:44:48.707Z,19.53
2019-05-28T17:47:20.990Z,19.42
2019-05-28T17:49:52.938Z,19.38
2019-05-28T17:52:24.955Z,19.34
2019-05-28T17:54:56.928Z,19.29
2019-05-28T17:57:29.063Z,19.26
2019-05-28T18:00:00.961Z,19.22
2019-05-28T18:02:34.838Z,19.15
2019-05-28T18:05:07.747Z,19.07
2019-05-28T18:07:39.744Z,19.04
2019-05-28T18:10:13.577Z,19.00
2019-05-28T18:12:45.973Z,18.95
2019-05-28T18:15:19.579Z,18.88
2019-05-28T18:17:51.449Z,18.83
2019-05-28T18:20:23.611Z,18.74
2019-05-28T18:22:55.766Z,18.66
2019-05-28T18:25:27.613Z,18.62
2019-05-28T18:27:59.741Z,18.60
2019-05-28T18:30:31.538Z,18.54
2019-05-28T18:33:03.561Z,18.49
2019-05-28T18:35:35.556Z,18.42
2019-05-28T18:38:07.965Z,18.36
2019-05-28T18:40:40.118Z,18.34
2019-05-28T18:43:12.116Z,18.30
2019-05-28T18:45:43.981Z,18.26
2019-05-28T18:48:15.937Z,18.22
2019-05-28T18:50:48.689Z,18.17
2019-05-28T18:53:21.058Z,18.13
2019-05-28T18:55:53.332Z,18.11
2019-05-28T18:58:25.737Z,18.06
2019-05-28T19:00:57.784Z,18.02
2019-05-28T19:03:30.069Z,17.99
2019-05-28T19:06:02.003Z,17.93
2019-05-28T19:08:34.102Z,17.86
2019-05-28T19:11:06.335Z,17.85
2019-05-28T19:13:38.391Z,17.80
2019-05-28T19:16:10.327Z,17.79
2019-05-28T19:18:42.840Z,17.74
2019-05-28T19:21:14.675Z,17.66
2019-05-28T19:23:46.897Z,17.62
2019-05-28T19:26:19.581Z,17.60
2019-05-28T19:28:52.096Z,17.60
2019-05-28T19:31:24.326Z,17.60
2019-05-28T19:33:57.251Z,17.57
2019-05-28T19:36:31.538Z,17.56
2019-05-28T19:39:07.595Z,17.53
2019-05-28T19:41:52.496Z,17.49
2019-05-28T19:44:13.709Z,17.45
2019-05-28T19:46:45.793Z,17.41
2019-05-28T19:49:17.794Z,17.36
2019-05-28T19:51:49.663Z,17.30
2019-05-28T19:54:21.736Z,17.28
2019-05-28T19:56:53.706Z,17.25
2019-05-28T19:59:25.616Z,17.20
2019-05-28T20:01:57.470Z,17.19
2019-05-28T20:04:29.579Z,17.14
2019-05-28T20:07:02.121Z,17.10
2019-05-28T20:09:34.122Z,17.07
2019-05-28T20:12:12.740Z,17.06
2019-05-28T20:14:39.682Z,17.05
2019-05-28T20:17:11.515Z,17.04
2019-05-28T20:19:43.593Z,17.03
2019-05-28T20:22:15.412Z,17.00
2019-05-28T20:24:47.833Z,16.97
2019-05-28T20:27:19.930Z,16.97
2019-05-28T20:29:52.065Z,16.97
2019-05-28T20:32:23.925Z,16.98
2019-05-28T20:34:56.302Z,16.98
2019-05-28T20:37:28.280Z,16.97
2019-05-28T20:40:00.309Z,16.97
2019-05-28T20:42:35.673Z,16.97
2019-05-28T20:45:08.955Z,16.96
2019-05-28T20:47:42.020Z,16.94
2019-05-28T20:50:14.401Z,16.91
2019-05-28T20:52:46.193Z,16.93
2019-05-28T20:55:20.440Z,16.92
2019-05-28T20:57:53.361Z,16.92
2019-05-28T21:00:26.032Z,16.90
2019-05-28T21:02:57.935Z,16.87
2019-05-28T21:05:30.232Z,16.82
2019-05-28T21:08:02.028Z,16.80
2019-05-28T21:10:34.151Z,16.79
2019-05-28T21:13:06.832Z,16.76
2019-05-28T21:15:38.859Z,16.74
2019-05-28T21:18:10.803Z,16.72
2019-05-28T21:20:42.672Z,16.71
2019-05-28T21:23:17.688Z,16.70
2019-05-28T21:25:50.043Z,16.70
2019-05-28T21:28:25.760Z,16.72
2019-05-28T21:30:57.185Z,16.71
2019-05-28T21:33:29.039Z,16.67
2019-05-28T21:36:01.438Z,16.67
2019-05-28T21:38:33.297Z,16.70
2019-05-28T21:41:05.324Z,16.74
2019-05-28T21:43:37.103Z,16.75
2019-05-28T21:46:09.129Z,16.77
2019-05-28T21:48:40.940Z,16.78
2019-05-28T21:51:13.254Z,16.78
2019-05-28T21:53:45.406Z,16.78
2019-05-28T21:56:17.565Z,16.76
2019-05-28T21:58:49.609Z,16.75
2019-05-28T22:01:26.240Z,16.76
2019-05-28T22:03:59.389Z,16.80
2019-05-28T22:06:31.674Z,16.81
2019-05-28T22:09:05.123Z,16.82
2019-05-28T22:11:38.642Z,16.81
2019-05-28T22:14:10.889Z,16.81
2019-05-28T22:16:43.001Z,16.85
2019-05-28T22:19:14.852Z,16.87
2019-05-28T22:21:47.013Z,16.90
2019-05-28T22:24:18.877Z,16.94
2019-05-28T22:26:50.704Z,16.93
2019-05-28T22:29:22.940Z,16.97
2019-05-28T22:31:54.856Z,16.98
2019-05-28T22:34:26.616Z,16.99
2019-05-28T22:36:58.709Z,16.98
2019-05-28T22:39:30.613Z,16.98
2019-05-28T22:42:03.702Z,16.96
2019-05-28T22:44:35.758Z,16.97
2019-05-28T22:47:07.921Z,16.97
2019-05-28T22:49:39.968Z,16.96
2019-05-28T22:52:12.150Z,16.97
2019-05-28T22:54:43.964Z,17.00
2019-05-28T22:57:16.172Z,17.03
2019-05-28T22:59:48.418Z,17.04
2019-05-28T23:02:20.727Z,17.01
2019-05-28T23:04:52.539Z,16.97
2019-05-28T23:07:24.789Z,16.93
2019-05-28T23:09:56.647Z,16.86
2019-05-28T23:12:28.788Z,16.83
2019-05-28T23:15:02.072Z,16.90
2019-05-28T23:17:34.124Z,16.96
2019-05-28T23:20:06.770Z,16.96
2019-05-28T23:22:38.733Z,16.95
2019-05-28T23:25:11.779Z,16.90
2019-05-28T23:27:44.189Z,16.93
2019-05-28T23:30:24.588Z,16.88
2019-05-28T23:32:49.861Z,16.90
2019-05-28T23:35:21.637Z,16.94
2019-05-28T23:37:53.493Z,16.97
2019-05-28T23:40:25.291Z,16.83
2019-05-28T23:42:57.333Z,16.76
2019-05-28T23:45:29.544Z,16.83
2019-05-28T23:48:01.723Z,16.88
2019-05-28T23:50:33.566Z,16.89
2019-05-28T23:53:05.726Z,16.87
2019-05-28T23:55:37.625Z,16.80
2019-05-28T23:58:09.895Z,16.74
